createdAt,value
2023-03-26T00:02:13.925Z,50.47
2023-03-26T00:04:40.064Z,50.63
2023-03-26T00:07:06.168Z,53.18
2023-03-26T00:09:32.258Z,53.47
2023-03-26T00:11:58.386Z,52.94
2023-03-26T00:14:24.472Z,52.21
2023-03-26T00:16:50.620Z,50.68
2023-03-26T00:19:16.732Z,50.10
2023-03-26T00:21:42.856Z,51.84
2023-03-26T00:24:08.945Z,52.71
2023-03-26T00:26:35.082Z,51.57
2023-03-26T00:29:01.197Z,53.11
2023-03-26T00:31:27.302Z,52.08
2023-03-26T00:33:53.412Z,51.43
2023-03-26T00:36:19.529Z,50.64
2023-03-26T00:38:45.651Z,51.12
2023-03-26T00:41:11.729Z,51.00
2023-03-26T00:43:37.839Z,52.85
2023-03-26T00:46:04.018Z,53.90
2023-03-26T00:48:44.105Z,54.80
2023-03-26T00:51:11.479Z,53.29
2023-03-26T00:53:37.578Z,53.68
2023-03-26T00:56:03.687Z,55.06
2023-03-26T00:58:29.766Z,55.11
2023-03-26T01:00:55.875Z,55.06
2023-03-26T01:03:28.032Z,53.70
2023-03-26T01:05:54.709Z,53.67
2023-03-26T01:08:20.934Z,55.51
2023-03-26T01:10:47.016Z,54.36
2023-03-26T01:13:13.099Z,55.68
2023-03-26T01:15:39.218Z,55.26
2023-03-26T01:18:05.364Z,54.34
2023-03-26T01:20:31.463Z,54.03
2023-03-26T01:22:57.580Z,53.50
2023-03-26T01:25:23.694Z,52.17
2023-03-26T01:27:49.808Z,52.42
2023-03-26T01:30:15.940Z,53.67
2023-03-26T01:32:42.252Z,52.70
2023-03-26T01:35:08.442Z,52.65
2023-03-26T01:37:34.560Z,52.22
2023-03-26T01:40:00.670Z,52.11
2023-03-26T01:42:26.792Z,53.09
2023-03-26T01:44:52.922Z,53.88
2023-03-26T01:47:19.009Z,53.33
2023-03-26T01:49:45.114Z,53.18
2023-03-26T01:52:11.194Z,52.42
2023-03-26T01:54:37.315Z,53.12
2023-03-26T01:57:03.488Z,52.11
2023-03-26T01:59:29.634Z,52.02
2023-03-26T02:01:55.875Z,52.41
2023-03-26T02:04:22.035Z,49.23
2023-03-26T02:06:48.147Z,49.25
2023-03-26T02:09:14.254Z,48.96
2023-03-26T02:11:40.354Z,47.82
2023-03-26T02:14:06.457Z,49.91
2023-03-26T02:16:32.619Z,52.17
2023-03-26T02:18:58.801Z,50.39
2023-03-26T02:21:24.883Z,48.89
2023-03-26T02:23:51.108Z,50.81
2023-03-26T02:26:17.204Z,51.23
2023-03-26T02:28:43.300Z,50.34
2023-03-26T02:31:09.425Z,49.46
2023-03-26T02:33:35.536Z,48.81
2023-03-26T02:36:01.833Z,52.27
2023-03-26T02:38:28.166Z,50.77
2023-03-26T02:40:54.251Z,50.20
2023-03-26T02:43:20.343Z,49.27
2023-03-26T02:45:46.502Z,48.71
2023-03-26T02:48:12.597Z,50.83
2023-03-26T02:50:38.713Z,50.59
2023-03-26T02:53:04.812Z,50.59
2023-03-26T02:55:30.909Z,51.09
2023-03-26T02:57:57.015Z,52.13
2023-03-26T03:00:23.152Z,52.87
2023-03-26T03:02:49.337Z,51.97
2023-03-26T03:05:15.511Z,51.62
2023-03-26T03:07:41.638Z,51.50
2023-03-26T03:10:07.757Z,52.48
2023-03-26T03:12:33.874Z,52.43
2023-03-26T03:14:59.961Z,53.58
2023-03-26T03:17:26.058Z,52.71
2023-03-26T03:19:52.185Z,52.22
2023-03-26T03:22:18.297Z,50.59
2023-03-26T03:24:44.423Z,49.10
2023-03-26T03:27:10.541Z,48.48
2023-03-26T03:29:36.630Z,50.34
2023-03-26T03:32:02.775Z,49.83
2023-03-26T03:34:28.886Z,50.12
2023-03-26T03:36:54.982Z,51.64
2023-03-26T03:39:21.070Z,51.13
2023-03-26T03:41:47.184Z,51.58
2023-03-26T03:44:13.280Z,51.50
2023-03-26T03:46:39.396Z,52.07
2023-03-26T03:49:05.522Z,51.44
2023-03-26T03:51:31.635Z,53.01
2023-03-26T03:53:57.730Z,53.40
2023-03-26T03:56:23.842Z,52.91
2023-03-26T03:58:49.928Z,53.37
2023-03-26T04:01:16.044Z,50.09
2023-03-26T04:03:42.386Z,49.26
2023-03-26T04:06:08.655Z,51.31
2023-03-26T04:08:34.805Z,50.98
2023-03-26T04:11:00.967Z,52.46
2023-03-26T04:13:27.054Z,48.55
2023-03-26T04:15:53.372Z,48.32
2023-03-26T04:18:19.570Z,53.21
2023-03-26T04:20:45.689Z,53.05
2023-03-26T04:23:11.814Z,53.12
2023-03-26T04:25:37.923Z,53.83
2023-03-26T04:28:04.047Z,53.36
2023-03-26T04:30:30.267Z,51.64
2023-03-26T04:32:56.403Z,50.46
2023-03-26T04:35:22.538Z,50.08
2023-03-26T04:37:48.657Z,50.26
2023-03-26T04:40:14.787Z,51.10
2023-03-26T04:42:40.900Z,50.53
2023-03-26T04:45:07.017Z,49.59
2023-03-26T04:47:33.146Z,47.97
2023-03-26T04:49:59.318Z,48.12
2023-03-26T04:52:25.427Z,50.46
2023-03-26T04:54:51.509Z,48.48
2023-03-26T04:57:17.635Z,50.46
2023-03-26T04:59:43.783Z,49.48
2023-03-26T05:02:09.894Z,52.07
2023-03-26T05:04:36.105Z,52.93
2023-03-26T05:07:02.285Z,51.58
2023-03-26T05:09:28.383Z,51.40
2023-03-26T05:11:54.499Z,50.65
2023-03-26T05:14:20.589Z,50.01
2023-03-26T05:16:46.713Z,48.81
2023-03-26T05:19:12.858Z,49.21
2023-03-26T05:21:38.945Z,50.09
2023-03-26T05:24:05.029Z,50.42
2023-03-26T05:26:31.150Z,51.82
2023-03-26T05:28:57.233Z,51.40
2023-03-26T05:31:23.354Z,51.90
2023-03-26T05:33:49.465Z,52.13
2023-03-26T05:36:15.627Z,53.40
2023-03-26T05:38:41.777Z,51.71
2023-03-26T05:41:07.893Z,52.11
2023-03-26T05:43:34.019Z,52.42
2023-03-26T05:46:00.273Z,52.80
2023-03-26T05:48:26.433Z,52.61
2023-03-26T05:50:52.910Z,51.88
2023-03-26T05:53:19.280Z,51.47
2023-03-26T05:55:45.366Z,50.18
2023-03-26T05:58:11.495Z,51.72
2023-03-26T06:00:37.591Z,51.63
2023-03-26T06:03:03.859Z,50.84
2023-03-26T06:05:30.057Z,51.64
2023-03-26T06:07:56.158Z,51.37
2023-03-26T06:10:22.265Z,52.09
2023-03-26T06:12:48.375Z,53.62
2023-03-26T06:15:14.481Z,54.57
2023-03-26T06:17:40.640Z,54.73
2023-03-26T06:20:09.166Z,55.89
2023-03-26T06:22:35.567Z,57.74
2023-03-26T06:25:01.690Z,57.25
2023-03-26T06:27:27.794Z,57.83
2023-03-26T06:29:53.931Z,58.01
2023-03-26T06:32:20.632Z,58.15
2023-03-26T06:34:46.928Z,58.93
2023-03-26T06:37:13.042Z,58.77
2023-03-26T06:39:39.154Z,59.22
2023-03-26T06:42:05.244Z,59.32
2023-03-26T06:44:31.334Z,58.48
2023-03-26T06:46:57.467Z,57.72
2023-03-26T06:49:23.602Z,60.19
2023-03-26T06:51:49.726Z,59.84
2023-03-26T06:54:15.864Z,59.64
2023-03-26T06:56:42.000Z,62.01
2023-03-26T06:59:08.130Z,60.88
2023-03-26T07:01:34.344Z,59.55
2023-03-26T07:04:00.514Z,59.28
2023-03-26T07:06:26.691Z,58.40
2023-03-26T07:08:52.838Z,58.73
2023-03-26T07:11:18.955Z,58.80
2023-03-26T07:13:45.082Z,60.35
2023-03-26T07:16:11.212Z,59.30
2023-03-26T07:18:37.339Z,58.40
2023-03-26T07:21:03.460Z,58.67
2023-03-26T07:23:29.581Z,63.37
2023-03-26T07:25:55.775Z,66.81
2023-03-26T07:28:21.921Z,69.72
2023-03-26T07:30:48.050Z,73.50
2023-03-26T07:33:14.191Z,74.29
2023-03-26T07:35:40.375Z,74.68
2023-03-26T07:38:06.468Z,74.57
2023-03-26T07:40:32.560Z,74.22
2023-03-26T07:42:58.648Z,73.29
2023-03-26T07:45:24.776Z,72.03
2023-03-26T07:47:50.901Z,70.75
2023-03-26T07:50:18.320Z,70.03
2023-03-26T07:52:45.061Z,71.00
2023-03-26T07:55:11.472Z,70.73
2023-03-26T07:57:37.631Z,68.98
2023-03-26T08:00:03.807Z,68.66
2023-03-26T08:02:29.946Z,70.49
2023-03-26T08:04:56.209Z,70.06
2023-03-26T08:07:22.356Z,70.90
2023-03-26T08:09:48.444Z,69.29
2023-03-26T08:12:14.561Z,68.39
2023-03-26T08:14:40.662Z,68.83
2023-03-26T08:17:06.881Z,67.27
2023-03-26T08:19:33.010Z,66.51
2023-03-26T08:21:59.194Z,66.69
2023-03-26T08:24:25.318Z,66.50
2023-03-26T08:26:51.445Z,66.19
2023-03-26T08:29:17.545Z,65.71
2023-03-26T08:31:43.734Z,67.09
2023-03-26T08:34:13.258Z,66.44
2023-03-26T08:36:39.380Z,63.96
2023-03-26T08:39:05.482Z,63.05
2023-03-26T08:41:31.613Z,63.74
2023-03-26T08:43:57.741Z,63.66
2023-03-26T08:46:24.977Z,62.12
2023-03-26T08:48:52.112Z,61.72
2023-03-26T08:51:18.206Z,63.02
2023-03-26T08:53:44.321Z,61.92
2023-03-26T08:56:10.428Z,60.99
2023-03-26T08:58:36.552Z,60.31
2023-03-26T09:01:02.644Z,61.01
2023-03-26T09:03:28.756Z,62.78
2023-03-26T09:05:54.900Z,65.35
2023-03-26T09:08:21.001Z,66.86
2023-03-26T09:10:47.118Z,67.79
2023-03-26T09:13:13.231Z,70.23
2023-03-26T09:15:39.402Z,70.16
2023-03-26T09:18:05.603Z,68.04
2023-03-26T09:20:31.728Z,67.66
2023-03-26T09:22:57.833Z,66.92
2023-03-26T09:25:23.941Z,65.17
2023-03-26T09:27:50.057Z,63.83
2023-03-26T09:30:16.144Z,62.91
2023-03-26T09:32:42.306Z,62.42
2023-03-26T09:35:08.440Z,61.98
2023-03-26T09:37:34.520Z,61.72
2023-03-26T09:40:00.634Z,60.93
2023-03-26T09:42:26.802Z,59.36
2023-03-26T09:44:52.905Z,59.86
2023-03-26T09:47:19.059Z,60.50
2023-03-26T09:49:45.166Z,64.92
2023-03-26T09:52:11.258Z,66.56
2023-03-26T09:54:37.386Z,64.90
2023-03-26T09:57:03.528Z,64.04
2023-03-26T09:59:29.647Z,62.05
2023-03-26T10:01:55.759Z,61.15
2023-03-26T10:04:21.871Z,58.13
2023-03-26T10:06:47.983Z,58.29
2023-03-26T10:09:14.105Z,58.61
2023-03-26T10:11:40.198Z,59.64
2023-03-26T10:14:06.282Z,61.51
2023-03-26T10:16:32.482Z,63.40
2023-03-26T10:18:58.602Z,65.26
2023-03-26T10:21:26.173Z,63.91
2023-03-26T10:23:53.556Z,65.68
2023-03-26T10:26:19.657Z,66.63
2023-03-26T10:28:45.787Z,65.85
2023-03-26T10:31:11.916Z,64.52
2023-03-26T10:33:38.043Z,63.08
2023-03-26T10:36:04.199Z,61.91
2023-03-26T10:38:30.366Z,62.98
2023-03-26T10:40:56.727Z,62.24
2023-03-26T10:43:22.988Z,62.14
2023-03-26T10:45:49.202Z,63.26
2023-03-26T10:48:15.429Z,63.13
2023-03-26T10:50:41.577Z,60.99
2023-03-26T10:53:07.668Z,63.25
2023-03-26T10:55:33.791Z,62.35
2023-03-26T10:57:59.926Z,60.90
2023-03-26T11:00:26.057Z,61.76
2023-03-26T11:02:52.321Z,65.93
2023-03-26T11:05:18.731Z,66.62
2023-03-26T11:07:45.014Z,66.08
2023-03-26T11:10:11.422Z,66.22
2023-03-26T11:12:37.727Z,65.39
2023-03-26T11:15:03.880Z,71.03
2023-03-26T11:17:39.223Z,74.31
2023-03-26T11:20:06.095Z,76.06
2023-03-26T11:22:32.209Z,77.52
2023-03-26T11:24:58.304Z,77.69
2023-03-26T11:27:25.861Z,78.06
2023-03-26T11:29:52.644Z,77.37
2023-03-26T11:32:18.875Z,74.39
2023-03-26T11:34:45.424Z,71.34
2023-03-26T11:37:11.540Z,71.13
2023-03-26T11:39:37.671Z,70.21
2023-03-26T11:42:03.917Z,66.73
2023-03-26T11:44:30.065Z,63.35
2023-03-26T11:46:56.191Z,60.71
2023-03-26T11:49:22.514Z,61.04
2023-03-26T11:51:48.720Z,58.03
2023-03-26T11:54:15.134Z,57.07
2023-03-26T11:56:41.595Z,56.40
2023-03-26T11:59:27.727Z,57.19
2023-03-26T12:01:54.021Z,56.69
2023-03-26T12:04:20.346Z,54.07
2023-03-26T12:06:46.586Z,54.89
2023-03-26T12:09:12.803Z,55.62
2023-03-26T12:11:39.015Z,54.77
2023-03-26T12:14:05.445Z,52.83
2023-03-26T12:16:31.688Z,52.50
2023-03-26T12:18:57.882Z,49.41
2023-03-26T12:21:23.987Z,46.51
2023-03-26T12:23:50.224Z,48.65
2023-03-26T12:26:16.424Z,47.16
2023-03-26T12:28:43.024Z,46.38
2023-03-26T12:31:09.145Z,43.80
2023-03-26T12:33:35.449Z,44.59
2023-03-26T12:36:01.783Z,46.06
2023-03-26T12:38:28.004Z,44.65
2023-03-26T12:40:54.362Z,45.52
2023-03-26T12:44:55.725Z,43.37
2023-03-26T12:47:57.494Z,43.43
2023-03-26T12:48:53.272Z,49.27
2023-03-26T12:51:19.550Z,48.52
2023-03-26T12:53:45.813Z,39.62
2023-03-26T12:56:11.959Z,40.28
2023-03-26T12:58:38.118Z,43.92
2023-03-26T13:01:04.281Z,43.66
2023-03-26T13:03:30.467Z,43.53
2023-03-26T13:05:56.698Z,43.14
2023-03-26T13:08:22.903Z,43.91
2023-03-26T13:10:49.103Z,43.40
2023-03-26T13:13:15.371Z,50.50
2023-03-26T13:15:41.559Z,50.03
2023-03-26T13:18:07.812Z,49.33
2023-03-26T13:20:33.962Z,47.23
2023-03-26T13:23:00.116Z,49.13
2023-03-26T13:25:26.351Z,49.80
2023-03-26T13:27:52.652Z,49.47
2023-03-26T13:30:18.900Z,44.47
2023-03-26T13:32:45.151Z,43.98
2023-03-26T13:35:11.337Z,45.99
2023-03-26T13:37:37.665Z,43.67
2023-03-26T13:40:03.811Z,42.67
2023-03-26T13:42:30.143Z,39.89
2023-03-26T13:45:05.143Z,39.79
2023-03-26T13:47:32.243Z,41.42
2023-03-26T13:49:58.748Z,37.41
2023-03-26T13:52:25.134Z,36.92
2023-03-26T13:54:51.295Z,40.18
2023-03-26T13:57:17.494Z,41.90
2023-03-26T13:59:43.830Z,41.80
2023-03-26T14:02:10.039Z,40.79
2023-03-26T14:04:36.492Z,43.38
2023-03-26T14:07:02.708Z,45.12
2023-03-26T14:09:28.847Z,56.99
2023-03-26T14:11:54.995Z,62.61
2023-03-26T14:14:21.205Z,65.19
2023-03-26T14:16:47.340Z,64.36
2023-03-26T14:19:13.480Z,63.85
2023-03-26T14:21:39.894Z,65.21
2023-03-26T14:24:06.173Z,66.88
2023-03-26T14:26:32.287Z,67.79
2023-03-26T14:28:58.429Z,70.83
2023-03-26T14:31:24.603Z,73.01
2023-03-26T14:33:50.767Z,75.29
2023-03-26T14:36:16.914Z,77.12
2023-03-26T14:38:43.043Z,79.18
2023-03-26T14:41:09.466Z,81.73
2023-03-26T14:43:35.768Z,83.96
2023-03-26T14:46:01.933Z,86.29
2023-03-26T14:48:28.222Z,87.39
2023-03-26T14:50:54.764Z,87.76
2023-03-26T14:53:21.503Z,88.52
2023-03-26T14:55:47.679Z,90.27
2023-03-26T14:58:13.923Z,89.25
2023-03-26T15:00:40.105Z,88.44
2023-03-26T15:03:06.503Z,87.38
2023-03-26T15:05:32.691Z,87.21
2023-03-26T15:07:58.878Z,85.96
2023-03-26T15:10:25.119Z,84.83
2023-03-26T15:12:51.586Z,83.37
2023-03-26T15:15:17.749Z,82.22
2023-03-26T15:17:44.227Z,81.40
2023-03-26T15:20:10.425Z,81.51
2023-03-26T15:22:36.571Z,82.26
2023-03-26T15:25:02.782Z,83.32
2023-03-26T15:27:28.933Z,82.09
2023-03-26T15:29:55.137Z,81.33
2023-03-26T15:32:21.384Z,80.16
2023-03-26T15:34:47.686Z,80.42
2023-03-26T15:37:13.851Z,76.22
2023-03-26T15:39:39.997Z,76.35
2023-03-26T15:42:06.122Z,72.09
2023-03-26T15:44:38.081Z,73.56
2023-03-26T15:47:10.164Z,71.65
2023-03-26T15:49:36.296Z,68.68
2023-03-26T15:52:02.436Z,68.19
2023-03-26T15:54:28.618Z,65.50
2023-03-26T15:56:55.079Z,64.53
2023-03-26T15:59:21.287Z,63.27
2023-03-26T16:01:47.786Z,62.81
2023-03-26T16:04:14.312Z,64.79
2023-03-26T16:06:40.523Z,63.18
2023-03-26T16:09:06.886Z,62.60
2023-03-26T16:11:33.373Z,65.24
2023-03-26T16:13:59.496Z,66.83
2023-03-26T16:16:25.747Z,65.08
2023-03-26T16:18:51.983Z,67.32
2023-03-26T16:21:30.864Z,66.36
2023-03-26T16:23:58.403Z,65.62
2023-03-26T16:26:24.595Z,64.85
2023-03-26T16:28:51.033Z,64.01
2023-03-26T16:31:23.381Z,65.69
2023-03-26T16:34:03.297Z,66.38
2023-03-26T16:36:29.613Z,66.50
2023-03-26T16:38:55.768Z,64.66
2023-03-26T16:41:21.923Z,66.43
2023-03-26T16:43:48.105Z,67.26
2023-03-26T16:46:14.241Z,68.52
2023-03-26T16:48:40.517Z,67.19
2023-03-26T16:51:06.742Z,67.66
2023-03-26T16:53:33.202Z,68.35
2023-03-26T16:55:59.403Z,70.14
2023-03-26T16:58:25.805Z,68.17
2023-03-26T17:00:51.915Z,66.68
2023-03-26T17:03:18.079Z,62.01
2023-03-26T17:05:44.312Z,63.59
2023-03-26T17:08:10.546Z,65.47
2023-03-26T17:10:36.655Z,64.29
2023-03-26T17:13:02.921Z,59.74
2023-03-26T17:15:29.170Z,62.86
2023-03-26T17:17:55.371Z,62.93
2023-03-26T17:20:21.645Z,64.68
2023-03-26T17:22:47.948Z,66.52
2023-03-26T17:25:14.142Z,62.58
2023-03-26T17:27:40.277Z,62.82
2023-03-26T17:30:06.592Z,64.49
2023-03-26T17:32:32.772Z,66.35
2023-03-26T17:35:07.710Z,64.49
2023-03-26T17:37:33.875Z,66.15
2023-03-26T17:40:00.139Z,67.40
2023-03-26T17:42:26.275Z,66.89
2023-03-26T17:44:52.430Z,66.08
2023-03-26T17:47:18.850Z,66.39
2023-03-26T17:49:45.038Z,65.60
2023-03-26T17:52:11.177Z,65.61
2023-03-26T17:54:37.388Z,67.33
2023-03-26T17:57:03.610Z,63.93
2023-03-26T17:59:29.748Z,65.50
2023-03-26T18:01:55.878Z,67.10
2023-03-26T18:04:22.096Z,66.84
2023-03-26T18:06:48.209Z,66.11
2023-03-26T18:09:14.332Z,67.01
2023-03-26T18:11:40.478Z,67.11
2023-03-26T18:14:06.597Z,68.10
2023-03-26T18:16:32.732Z,67.46
2023-03-26T18:18:58.973Z,66.24
2023-03-26T18:21:25.180Z,65.63
2023-03-26T18:23:51.339Z,67.92
2023-03-26T18:26:17.488Z,64.46
2023-03-26T18:28:43.617Z,66.41
2023-03-26T18:31:10.705Z,66.92
2023-03-26T18:33:36.905Z,66.54
2023-03-26T18:36:03.091Z,68.36
2023-03-26T18:38:36.944Z,68.08
2023-03-26T18:41:04.810Z,67.69
2023-03-26T18:43:35.156Z,67.46
2023-03-26T18:46:01.772Z,67.07
2023-03-26T18:48:28.602Z,64.32
2023-03-26T18:50:55.296Z,66.32
2023-03-26T18:53:22.041Z,66.90
2023-03-26T18:55:48.267Z,67.83
2023-03-26T18:58:14.856Z,67.18
2023-03-26T19:00:41.028Z,66.69
2023-03-26T19:03:07.228Z,64.15
2023-03-26T19:05:33.390Z,67.80
2023-03-26T19:07:59.840Z,69.34
2023-03-26T19:10:26.296Z,67.52
2023-03-26T19:12:52.714Z,67.25
2023-03-26T19:15:19.032Z,67.91
2023-03-26T19:17:45.174Z,66.11
2023-03-26T19:20:11.407Z,66.88
2023-03-26T19:22:37.847Z,69.35
2023-03-26T19:25:04.291Z,67.24
2023-03-26T19:27:30.405Z,63.14
2023-03-26T19:29:56.818Z,65.55
2023-03-26T19:32:23.036Z,65.91
2023-03-26T19:34:49.234Z,67.68
2023-03-26T19:37:15.636Z,67.86
2023-03-26T19:39:41.768Z,67.48
2023-03-26T19:42:07.951Z,66.80
2023-03-26T19:44:34.214Z,67.55
2023-03-26T19:47:00.499Z,67.95
2023-03-26T19:49:28.334Z,65.25
2023-03-26T19:51:54.643Z,65.92
2023-03-26T19:54:21.079Z,68.28
2023-03-26T19:56:47.291Z,70.16
2023-03-26T19:59:13.609Z,67.81
2023-03-26T20:01:40.102Z,68.77
2023-03-26T20:04:06.638Z,68.26
2023-03-26T20:06:42.401Z,68.02
2023-03-26T20:09:10.422Z,68.30
2023-03-26T20:11:36.596Z,67.26
2023-03-26T20:14:02.791Z,67.75
2023-03-26T20:16:29.004Z,67.41
2023-03-26T20:18:55.231Z,68.41
2023-03-26T20:21:21.476Z,67.35
2023-03-26T20:23:47.925Z,68.96
2023-03-26T20:26:14.542Z,67.54
2023-03-26T20:28:47.814Z,67.42
2023-03-26T20:31:15.214Z,66.93
2023-03-26T20:33:42.802Z,66.61
2023-03-26T20:36:09.082Z,67.31
2023-03-26T20:38:39.346Z,66.36
2023-03-26T20:41:06.053Z,67.63
2023-03-26T20:43:32.262Z,66.73
2023-03-26T20:45:58.723Z,66.84
2023-03-26T20:48:25.349Z,66.73
2023-03-26T20:50:51.685Z,66.89
2023-03-26T20:53:17.848Z,67.97
2023-03-26T20:55:43.994Z,69.70
2023-03-26T20:58:10.246Z,70.52
2023-03-26T21:00:36.496Z,72.50
2023-03-26T21:03:02.689Z,72.91
2023-03-26T21:05:28.840Z,72.89
2023-03-26T21:07:55.037Z,71.79
2023-03-26T21:10:21.183Z,71.50
2023-03-26T21:12:47.635Z,71.53
2023-03-26T21:15:23.025Z,70.34
2023-03-26T21:17:50.010Z,69.53
2023-03-26T21:20:16.511Z,70.19
2023-03-26T21:22:42.739Z,68.01
2023-03-26T21:25:09.132Z,68.78
2023-03-26T21:27:35.361Z,67.59
2023-03-26T21:30:01.484Z,67.44
2023-03-26T21:32:27.664Z,67.50
2023-03-26T21:37:23.216Z,67.03
2023-03-26T21:39:49.579Z,68.09
2023-03-26T21:42:16.162Z,68.20
2023-03-26T21:44:42.436Z,67.56
2023-03-26T21:47:09.899Z,67.10
2023-03-26T21:49:36.193Z,67.56
2023-03-26T21:52:02.525Z,67.81
2023-03-26T21:54:28.639Z,65.84
2023-03-26T21:56:55.079Z,67.11
2023-03-26T21:59:21.274Z,65.31
2023-03-26T22:01:47.474Z,63.57
2023-03-26T22:04:13.689Z,66.14
2023-03-26T22:06:39.919Z,66.44
2023-03-26T22:09:06.386Z,67.79
2023-03-26T22:11:32.830Z,67.29
2023-03-26T22:13:59.045Z,66.62
2023-03-26T22:16:25.493Z,67.31
2023-03-26T22:18:51.992Z,66.75
2023-03-26T22:21:18.147Z,65.42
2023-03-26T22:23:44.396Z,67.19
2023-03-26T22:26:10.635Z,66.26
2023-03-26T22:28:36.934Z,66.66
2023-03-26T22:31:03.388Z,67.13
2023-03-26T22:33:29.533Z,65.16
2023-03-26T22:35:55.705Z,62.78
2023-03-26T22:38:21.947Z,62.03
2023-03-26T22:40:48.084Z,63.07
2023-03-26T22:43:14.222Z,66.56
2023-03-26T22:45:40.343Z,67.06
2023-03-26T22:48:06.519Z,67.67
2023-03-26T22:50:32.826Z,68.21
2023-03-26T22:52:59.148Z,67.63
2023-03-26T22:55:28.325Z,64.96
2023-03-26T22:57:55.820Z,64.91
2023-03-26T23:00:21.968Z,63.70
2023-03-26T23:02:48.291Z,65.35
2023-03-26T23:05:14.510Z,65.64
2023-03-26T23:07:40.664Z,66.20
2023-03-26T23:10:06.954Z,66.67
2023-03-26T23:12:33.106Z,65.28
2023-03-26T23:14:59.521Z,65.64
2023-03-26T23:17:25.790Z,65.91
2023-03-26T23:19:52.239Z,65.74
2023-03-26T23:22:18.374Z,66.86
2023-03-26T23:24:44.603Z,68.05
2023-03-26T23:27:10.841Z,67.21
2023-03-26T23:29:37.000Z,67.61
2023-03-26T23:32:03.229Z,66.89
2023-03-26T23:34:51.831Z,66.48
2023-03-26T23:37:18.632Z,66.85
2023-03-26T23:39:44.771Z,67.65
2023-03-26T23:42:10.905Z,65.48
2023-03-26T23:44:37.152Z,66.69
2023-03-26T23:47:03.298Z,66.36
2023-03-26T23:49:29.430Z,65.46
2023-03-26T23:51:55.568Z,66.29
2023-03-26T23:54:21.704Z,66.96
2023-03-26T23:56:47.799Z,66.21
2023-03-26T23:59:13.936Z,65.49
